createdAt,value
2023-05-17T00:00:36.100Z,0.43
2023-05-17T00:03:57.430Z,0.40
2023-05-17T00:07:18.796Z,0.43
2023-05-17T00:10:39.965Z,0.32
2023-05-17T00:14:02.664Z,0.30
2023-05-17T00:17:24.025Z,0.43
2023-05-17T00:20:45.299Z,0.40
2023-05-17T00:24:07.154Z,1.65
2023-05-17T00:27:28.622Z,0.57
2023-05-17T00:30:51.182Z,0.35
2023-05-17T00:34:12.393Z,0.28
2023-05-17T00:37:33.750Z,0.50
2023-05-17T00:40:55.255Z,0.35
2023-05-17T00:44:16.635Z,1.20
2023-05-17T00:47:39.442Z,1.55
2023-05-17T00:51:01.624Z,0.50
2023-05-17T00:54:24.058Z,0.40
2023-05-17T00:57:46.307Z,0.40
2023-05-17T01:01:08.555Z,0.40
2023-05-17T01:04:31.605Z,0.30
2023-05-17T01:07:53.315Z,0.30
2023-05-17T01:11:17.514Z,0.30
2023-05-17T01:14:52.688Z,2.50
2023-05-17T01:18:25.499Z,0.20
2023-05-17T01:21:59.090Z,0.52
2023-05-17T01:25:39.139Z,0.35
2023-05-17T01:29:05.700Z,0.30
2023-05-17T01:32:27.459Z,0.20
2023-05-17T01:35:48.794Z,0.28
2023-05-17T01:39:10.083Z,0.20
2023-05-17T01:42:34.921Z,0.10
2023-05-17T01:46:04.271Z,0.20
2023-05-17T01:49:31.942Z,0.22
2023-05-17T01:53:03.756Z,0.20
2023-05-17T01:56:35.197Z,0.30
2023-05-17T02:00:01.494Z,0.20
2023-05-17T02:03:24.656Z,1.42
2023-05-17T02:06:46.166Z,0.70
2023-05-17T02:10:08.210Z,0.40
2023-05-17T02:13:29.544Z,0.40
2023-05-17T02:16:54.595Z,0.50
2023-05-17T02:20:17.393Z,0.50
2023-05-17T02:23:38.669Z,0.50
2023-05-17T02:27:00.173Z,0.73
2023-05-17T02:30:22.351Z,0.73
2023-05-17T02:33:45.302Z,0.50
2023-05-17T02:37:07.960Z,0.57
2023-05-17T02:40:29.299Z,0.50
2023-05-17T02:43:50.811Z,0.43
2023-05-17T02:47:12.131Z,0.40
2023-05-17T02:50:33.501Z,0.40
2023-05-17T02:53:56.217Z,0.52
2023-05-17T02:57:17.491Z,0.50
2023-05-17T03:00:38.847Z,0.50
2023-05-17T03:04:00.576Z,0.40
2023-05-17T03:07:22.065Z,0.50
2023-05-17T03:10:44.799Z,0.50
2023-05-17T03:14:06.080Z,0.40
2023-05-17T03:17:27.518Z,0.60
2023-05-17T03:20:49.037Z,0.70
2023-05-17T03:24:10.319Z,0.50
2023-05-17T03:27:33.090Z,0.45
2023-05-17T03:30:54.709Z,0.50
2023-05-17T03:34:16.346Z,0.60
2023-05-17T03:37:37.850Z,4.65
2023-05-17T03:41:00.284Z,4.30
2023-05-17T03:44:22.995Z,10.48
2023-05-17T03:47:44.437Z,2.22
2023-05-17T03:51:06.351Z,3.75
2023-05-17T03:54:27.607Z,5.47
2023-05-17T03:57:49.044Z,1.60
2023-05-17T04:01:12.066Z,1.15
2023-05-17T04:04:33.403Z,1.30
2023-05-17T04:07:55.037Z,1.10
2023-05-17T04:11:16.626Z,1.40
2023-05-17T04:14:37.962Z,1.20
2023-05-17T04:18:00.921Z,1.13
2023-05-17T04:21:22.549Z,1.00
2023-05-17T04:24:43.794Z,1.08
2023-05-17T04:28:05.503Z,1.70
2023-05-17T04:31:26.968Z,1.33
2023-05-17T04:34:49.822Z,4.78
2023-05-17T04:38:13.263Z,2.70
2023-05-17T04:41:34.956Z,1.73
2023-05-17T04:44:57.896Z,2.95
2023-05-17T04:48:20.857Z,1.83
2023-05-17T04:51:43.703Z,2.03
2023-05-17T04:55:05.426Z,1.40
2023-05-17T04:58:26.709Z,1.65
2023-05-17T05:01:48.135Z,4.07
2023-05-17T05:05:09.823Z,2.05
2023-05-17T05:08:34.561Z,1.90
2023-05-17T05:11:56.021Z,2.10
2023-05-17T05:15:17.615Z,1.50
2023-05-17T05:18:39.243Z,1.50
2023-05-17T05:22:00.917Z,1.50
2023-05-17T05:25:23.818Z,1.70
2023-05-17T05:28:48.211Z,1.20
2023-05-17T05:32:17.337Z,1.48
2023-05-17T05:35:38.985Z,1.20
2023-05-17T05:39:00.393Z,1.40
2023-05-17T05:42:23.357Z,1.30
2023-05-17T05:45:47.495Z,1.20
2023-05-17T05:49:09.425Z,1.15
2023-05-17T05:52:31.153Z,1.20
2023-05-17T05:55:52.570Z,1.40
2023-05-17T05:59:20.734Z,1.38
2023-05-17T06:02:42.338Z,1.20
2023-05-17T06:06:04.119Z,2.00
2023-05-17T06:09:25.684Z,4.05
2023-05-17T06:12:47.466Z,3.15
2023-05-17T06:16:10.602Z,1.70
2023-05-17T06:19:32.251Z,1.00
2023-05-17T06:22:54.254Z,1.33
2023-05-17T06:26:15.922Z,1.10
2023-05-17T06:29:37.360Z,0.93
2023-05-17T06:33:01.416Z,0.98
2023-05-17T06:36:24.984Z,1.15
2023-05-17T06:39:55.685Z,0.90
2023-05-17T06:43:17.390Z,1.17
2023-05-17T06:46:38.910Z,1.10
2023-05-17T06:50:01.815Z,0.90
2023-05-17T06:53:23.184Z,0.95
2023-05-17T06:56:44.821Z,0.90
2023-05-17T07:00:10.927Z,0.75
2023-05-17T07:03:32.850Z,0.70
2023-05-17T07:06:55.917Z,0.70
2023-05-17T07:10:17.625Z,0.70
2023-05-17T07:13:39.298Z,0.60
2023-05-17T07:17:02.825Z,0.60
2023-05-17T07:20:24.346Z,0.60
2023-05-17T07:23:47.326Z,2.65
2023-05-17T07:27:08.788Z,1.83
2023-05-17T07:30:30.406Z,1.20
2023-05-17T07:33:51.916Z,0.70
2023-05-17T07:37:13.579Z,1.73
2023-05-17T07:40:36.443Z,0.73
2023-05-17T07:43:58.011Z,0.63
2023-05-17T07:47:19.902Z,0.70
2023-05-17T07:50:41.559Z,1.20
2023-05-17T07:54:03.866Z,1.13
2023-05-17T07:57:30.654Z,1.00
2023-05-17T08:00:52.125Z,1.10
2023-05-17T08:04:14.480Z,1.00
2023-05-17T08:07:36.708Z,1.20
2023-05-17T08:10:58.548Z,4.20
2023-05-17T08:14:24.112Z,4.13
2023-05-17T08:17:45.728Z,2.80
2023-05-17T08:21:07.568Z,0.90
2023-05-17T08:24:29.253Z,1.30
2023-05-17T08:27:50.820Z,1.20
2023-05-17T08:31:13.901Z,1.38
2023-05-17T08:34:35.478Z,0.73
2023-05-17T08:37:56.908Z,0.82
2023-05-17T08:41:18.567Z,1.17
2023-05-17T08:44:40.558Z,0.90
2023-05-17T08:48:05.655Z,1.00
2023-05-17T08:51:28.688Z,1.10
2023-05-17T08:54:50.316Z,0.93
2023-05-17T08:58:12.117Z,0.90
2023-05-17T09:01:33.885Z,1.13
2023-05-17T09:04:58.243Z,0.80
2023-05-17T09:08:19.893Z,1.00
2023-05-17T09:11:41.848Z,1.00
2023-05-17T09:15:16.373Z,1.50
2023-05-17T09:18:54.523Z,1.20
2023-05-17T09:22:19.735Z,0.70
2023-05-17T09:25:48.374Z,1.50
2023-05-17T09:29:13.535Z,5.50
2023-05-17T09:32:35.828Z,1.30
2023-05-17T09:35:57.343Z,1.23
2023-05-17T09:39:21.689Z,1.10
2023-05-17T09:42:43.340Z,0.90
2023-05-17T09:46:04.980Z,1.10
2023-05-17T09:49:28.258Z,1.15
2023-05-17T09:52:49.721Z,1.00
2023-05-17T09:56:13.450Z,1.02
2023-05-17T09:59:37.131Z,1.30
2023-05-17T10:03:02.120Z,1.02
2023-05-17T10:06:43.731Z,1.23
2023-05-17T10:10:09.239Z,1.20
2023-05-17T10:13:35.970Z,1.10
2023-05-17T10:16:58.298Z,1.20
2023-05-17T10:20:20.239Z,1.20
2023-05-17T10:23:44.431Z,1.25
2023-05-17T10:27:08.866Z,1.35
2023-05-17T10:30:34.639Z,1.10
2023-05-17T10:33:57.452Z,1.25
2023-05-17T10:37:20.869Z,1.10
2023-05-17T10:40:44.047Z,1.27
2023-05-17T10:44:09.382Z,1.55
2023-05-17T10:47:33.731Z,1.45
2023-05-17T10:54:22.480Z,1.60
2023-05-17T10:57:50.484Z,1.50
2023-05-17T11:01:36.180Z,4.28
2023-05-17T11:05:24.464Z,1.98
2023-05-17T11:08:48.275Z,1.88
2023-05-17T11:12:13.554Z,2.03
2023-05-17T11:15:42.686Z,2.10
2023-05-17T11:19:08.557Z,1.60
2023-05-17T11:22:41.255Z,1.73
2023-05-17T11:26:16.200Z,1.92
2023-05-17T11:29:41.033Z,1.80
2023-05-17T11:33:11.118Z,1.83
2023-05-17T11:36:51.899Z,1.90
2023-05-17T11:40:16.222Z,2.05
2023-05-17T11:43:37.884Z,2.00
2023-05-17T11:47:03.658Z,3.45
2023-05-17T11:50:28.336Z,5.80
2023-05-17T11:54:10.758Z,2.63
2023-05-17T11:57:34.189Z,2.10
2023-05-17T12:00:59.095Z,2.03
2023-05-17T12:04:26.309Z,1.98
2023-05-17T12:07:49.575Z,2.10
2023-05-17T12:11:13.735Z,1.92
2023-05-17T12:14:35.905Z,2.05
2023-05-17T12:18:00.874Z,2.28
2023-05-17T12:21:23.278Z,1.95
2023-05-17T12:24:47.481Z,2.03
2023-05-17T12:28:22.596Z,1.90
2023-05-17T12:31:48.766Z,2.08
2023-05-17T12:35:12.191Z,2.72
2023-05-17T12:38:34.112Z,3.15
2023-05-17T12:41:57.370Z,2.10
2023-05-17T12:45:20.334Z,1.23
2023-05-17T12:48:42.792Z,1.42
2023-05-17T12:52:06.440Z,1.40
2023-05-17T12:55:28.078Z,1.10
2023-05-17T12:59:04.354Z,1.00
2023-05-17T13:02:29.639Z,1.13
2023-05-17T13:05:58.986Z,1.00
2023-05-17T13:09:21.103Z,1.10
2023-05-17T13:12:55.371Z,1.17
2023-05-17T13:16:29.518Z,1.20
2023-05-17T13:19:52.473Z,1.67
2023-05-17T13:23:14.039Z,6.85
2023-05-17T13:26:35.318Z,2.38
2023-05-17T13:29:56.638Z,2.03
2023-05-17T13:33:18.116Z,1.92
2023-05-17T13:36:41.111Z,1.50
2023-05-17T13:40:02.678Z,1.30
2023-05-17T13:43:24.107Z,1.88
2023-05-17T13:46:45.695Z,1.40
2023-05-17T13:50:08.238Z,1.50
2023-05-17T13:53:31.347Z,2.10
2023-05-17T13:56:53.946Z,1.75
2023-05-17T14:00:16.322Z,1.52
2023-05-17T14:03:38.044Z,1.65
2023-05-17T14:06:59.832Z,1.60
2023-05-17T14:10:22.812Z,1.88
2023-05-17T14:13:44.452Z,2.15
2023-05-17T14:17:06.174Z,1.58
2023-05-17T14:20:28.034Z,1.73
2023-05-17T14:23:49.910Z,1.83
2023-05-17T14:27:12.886Z,1.60
2023-05-17T14:30:34.478Z,1.65
2023-05-17T14:33:57.734Z,1.42
2023-05-17T14:37:21.395Z,1.40
2023-05-17T14:40:45.511Z,1.80
2023-05-17T14:44:15.877Z,1.42
2023-05-17T14:47:37.656Z,1.52
2023-05-17T14:51:00.055Z,1.50
2023-05-17T14:54:22.105Z,1.73
2023-05-17T14:57:43.949Z,1.80
2023-05-17T15:01:08.548Z,1.70
2023-05-17T15:04:30.435Z,1.80
2023-05-17T15:07:52.251Z,2.30
2023-05-17T15:11:14.252Z,2.15
2023-05-17T15:14:36.236Z,2.00
2023-05-17T15:18:00.396Z,2.22
2023-05-17T15:21:52.060Z,5.93
2023-05-17T15:25:13.716Z,2.20
2023-05-17T15:28:35.477Z,2.20
2023-05-17T15:31:59.388Z,2.10
2023-05-17T15:35:23.736Z,1.90
2023-05-17T15:38:46.676Z,2.38
2023-05-17T15:42:09.349Z,2.30
2023-05-17T15:45:31.687Z,2.92
2023-05-17T15:48:53.191Z,2.30
2023-05-17T15:52:15.933Z,2.10
2023-05-17T15:55:37.442Z,2.00
2023-05-17T15:59:00.447Z,4.20
2023-05-17T16:02:24.735Z,4.00
2023-05-17T16:05:46.756Z,3.10
2023-05-17T16:09:09.642Z,2.47
2023-05-17T16:12:31.240Z,2.90
2023-05-17T16:15:52.666Z,2.63
2023-05-17T16:19:14.179Z,3.10
2023-05-17T16:22:35.677Z,2.90
2023-05-17T16:26:03.029Z,3.33
2023-05-17T16:29:24.479Z,3.30
2023-05-17T16:32:50.016Z,3.60
2023-05-17T16:36:41.181Z,3.70
2023-05-17T16:40:02.609Z,3.72
2023-05-17T16:43:27.791Z,2.88
2023-05-17T16:46:49.347Z,3.40
2023-05-17T16:50:11.542Z,3.42
2023-05-17T16:53:38.285Z,3.40
2023-05-17T16:57:00.359Z,6.43
2023-05-17T17:00:23.716Z,4.68
2023-05-17T17:03:45.475Z,3.55
2023-05-17T17:07:11.559Z,3.40
2023-05-17T17:10:32.881Z,3.75
2023-05-17T17:13:54.235Z,3.63
2023-05-17T17:17:17.353Z,3.92
2023-05-17T17:20:38.775Z,3.50
2023-05-17T17:24:03.135Z,3.60
2023-05-17T17:27:24.775Z,3.42
2023-05-17T17:30:47.533Z,3.83
2023-05-17T17:34:10.710Z,3.33
2023-05-17T17:37:32.130Z,3.67
2023-05-17T17:40:53.619Z,3.58
2023-05-17T17:44:15.115Z,4.18
2023-05-17T17:47:36.475Z,5.88
2023-05-17T17:51:00.475Z,7.70
2023-05-17T17:54:21.840Z,4.30
2023-05-17T17:57:43.187Z,3.88
2023-05-17T18:01:06.173Z,3.88
2023-05-17T18:04:28.420Z,4.25
2023-05-17T18:08:00.641Z,4.05
2023-05-17T18:11:22.707Z,3.88
2023-05-17T18:14:44.558Z,3.50
2023-05-17T18:18:06.278Z,4.47
2023-05-17T18:21:29.303Z,4.70
2023-05-17T18:24:52.805Z,7.38
2023-05-17T18:28:14.261Z,5.28
2023-05-17T18:31:36.125Z,4.97
2023-05-17T18:34:57.697Z,4.47
2023-05-17T18:38:19.068Z,4.57
2023-05-17T18:41:41.773Z,4.80
2023-05-17T18:45:03.182Z,5.13
2023-05-17T18:48:25.375Z,4.70
2023-05-17T18:51:46.922Z,4.50
2023-05-17T18:55:08.471Z,4.28
2023-05-17T18:58:31.471Z,4.68
2023-05-17T19:01:52.750Z,4.85
2023-05-17T19:05:14.316Z,4.38
2023-05-17T19:08:35.979Z,7.35
2023-05-17T19:11:58.520Z,6.10
2023-05-17T19:15:21.740Z,7.53
2023-05-17T19:18:43.324Z,5.15
2023-05-17T19:22:05.606Z,5.05
2023-05-17T19:25:27.057Z,5.20
2023-05-17T19:28:48.474Z,4.80
2023-05-17T19:32:11.230Z,5.05
2023-05-17T19:35:32.838Z,4.22
2023-05-17T19:38:54.726Z,5.03
2023-05-17T19:42:16.098Z,5.25
2023-05-17T19:45:38.541Z,5.13
2023-05-17T19:49:02.400Z,6.50
2023-05-17T19:52:23.644Z,5.30
2023-05-17T19:55:45.226Z,5.10
2023-05-17T19:59:06.678Z,5.68
2023-05-17T20:02:28.084Z,5.20
2023-05-17T20:05:51.146Z,4.68
2023-05-17T20:09:12.561Z,6.03
2023-05-17T20:12:33.927Z,5.60
2023-05-17T20:15:55.845Z,5.60
2023-05-17T20:19:17.504Z,5.05
2023-05-17T20:22:41.305Z,5.53
2023-05-17T20:26:02.771Z,5.75
2023-05-17T20:29:24.086Z,7.50
2023-05-17T20:32:45.489Z,5.82
2023-05-17T20:36:07.078Z,5.93
2023-05-17T20:39:32.330Z,5.78
2023-05-17T20:42:54.399Z,4.95
2023-05-17T20:46:16.107Z,6.25
2023-05-17T20:49:37.876Z,5.95
2023-05-17T20:52:59.549Z,5.63
2023-05-17T20:56:22.185Z,6.40
2023-05-17T20:59:43.805Z,6.45
2023-05-17T21:03:05.291Z,6.25
2023-05-17T21:06:30.270Z,6.30
2023-05-17T21:09:53.155Z,6.35
2023-05-17T21:13:16.061Z,6.35
2023-05-17T21:16:37.402Z,5.93
2023-05-17T21:19:58.765Z,6.03
2023-05-17T21:23:20.544Z,5.97
2023-05-17T21:26:41.867Z,6.55
2023-05-17T21:30:04.712Z,6.10
2023-05-17T21:33:26.375Z,6.38
2023-05-17T21:36:47.812Z,5.65
2023-05-17T21:40:09.928Z,6.90
2023-05-17T21:43:31.589Z,6.28
2023-05-17T21:46:55.288Z,5.70
2023-05-17T21:50:17.698Z,6.45
2023-05-17T21:53:39.109Z,6.03
2023-05-17T21:57:00.895Z,6.47
2023-05-17T22:00:22.241Z,6.47
2023-05-17T22:03:44.993Z,6.32
2023-05-17T22:07:06.535Z,5.60
2023-05-17T22:10:28.020Z,5.80
2023-05-17T22:13:50.524Z,6.03
2023-05-17T22:17:11.989Z,6.47
2023-05-17T22:20:34.725Z,6.97
2023-05-17T22:23:56.259Z,5.97
2023-05-17T22:27:18.073Z,5.72
2023-05-17T22:30:39.412Z,5.95
2023-05-17T22:34:00.940Z,6.28
2023-05-17T22:37:23.726Z,6.43
2023-05-17T22:40:45.038Z,5.45
2023-05-17T22:44:06.647Z,5.57
2023-05-17T22:47:28.043Z,6.10
2023-05-17T22:50:50.699Z,5.60
2023-05-17T22:54:13.559Z,5.85
2023-05-17T22:57:34.810Z,5.88
2023-05-17T23:00:56.519Z,6.07
2023-05-17T23:04:17.912Z,6.03
2023-05-17T23:07:41.376Z,6.07
2023-05-17T23:11:05.639Z,6.00
2023-05-17T23:14:27.047Z,6.20
2023-05-17T23:17:48.335Z,5.50
2023-05-17T23:21:09.814Z,5.68
2023-05-17T23:24:31.648Z,5.82
2023-05-17T23:27:54.397Z,6.13
2023-05-17T23:31:16.470Z,6.03
2023-05-17T23:34:37.777Z,6.03
2023-05-17T23:37:59.106Z,6.35
2023-05-17T23:41:23.993Z,6.05
2023-05-17T23:44:49.046Z,5.60
2023-05-17T23:48:10.841Z,5.38
2023-05-17T23:51:34.867Z,5.78
2023-05-17T23:54:59.057Z,5.95
2023-05-17T23:58:20.426Z,5.80
